Toledo, OH (43617)

10:36 PM EDT on July 24, 2016 (GMT -0400)
KOHHOLLA2 | | Change Station

Elev 656 ft 41.64 °N, 83.72 °W | Updated 7 seconds ago

Clear
Clear
77.9 °F
Feels Like 80 °F
N
0.0
Wind Variable Wind from SSE
Gusts 0.0 mph

Today
High -- | Low -- °F
--% Chance of Precip.
Yesterday
High -- | Low -- °F
Precip. -- in
Pressure 29.92 in
Visibility 10.0 miles
Clouds Clear
Heat Index 80 °F
Dew Point 75 °F
Humidity 90%
Rainfall 0.23 in
Snow Depth Not available.
6:21 AM 9:00 PM
Waning Gibbous, 71% visible
METAR KTDZ 250153Z AUTO 14004KT 10SM CLR 26/24 A2993 RMK AO2 SLP130 T02560239
Pressure 29.92 in
Visibility 10.0 miles
Clouds Clear
Heat Index 80 °F
Dew Point 75 °F
Humidity 90%
Rainfall 0.23 in
Snow Depth Not available.
6:21 AM 9:00 PM
Waning Gibbous, 71% visible
METAR KTDZ 250153Z AUTO 14004KT 10SM CLR 26/24 A2993 RMK AO2 SLP130 T02560239

10-Day Weather Forecast

Almanac

Astronomy

Jul. 24, 2016 Rise Set
Actual Time
Civil Twilight
Nautical Twilight
Astronomical Twilight
Moon
Length of Visible Light
Length of Day
Tomorrow will be .
, % of the Moon is Illuminated

Today's Extremes

State Highs State Lows

Community

WunderPhotos

Upload Photos

1,927,243 photos uploaded!

WunderBlog® & News

Nearby

Air Quality

  Air Quality AQ Index Pollutant
Not available.

Snow Depth

Station Depth Elevation

Earthquake Activity

City Distance Mag. Time & Date
Minimum magnitude displayed is 2.5.

Coastal Water Temperatures

Place Temperature

Stations

Nearby Weather Stations

Station Location Temp. Windchill Dew Point Humidity Wind Precip. Elev Updated Type
                   

Watches & Warnings

There are currently no watches in effect.